sensor_id;sensor_type;location;lat;lon;timestamp;P1;durP1;ratioP1;P2;durP2;ratioP2
34930;SDS011;21134;49.646;8.560;2022-08-19T00:00:49;10.45;;;3.67;;
34930;SDS011;21134;49.646;8.560;2022-08-19T00:03:16;5.70;;;3.20;;
34930;SDS011;21134;49.646;8.560;2022-08-19T00:05:43;7.47;;;3.78;;
34930;SDS011;21134;49.646;8.560;2022-08-19T00:08:10;7.13;;;3.65;;
34930;SDS011;21134;49.646;8.560;2022-08-19T00:10:37;16.85;;;4.72;;
34930;SDS011;21134;49.646;8.560;2022-08-19T00:13:05;11.10;;;3.22;;
34930;SDS011;21134;49.646;8.560;2022-08-19T00:15:31;9.45;;;3.88;;
34930;SDS011;21134;49.646;8.560;2022-08-19T00:17:58;7.25;;;4.18;;
34930;SDS011;21134;49.646;8.560;2022-08-19T00:20:25;8.35;;;4.30;;
34930;SDS011;21134;49.646;8.560;2022-08-19T00:22:52;8.15;;;3.78;;
34930;SDS011;21134;49.646;8.560;2022-08-19T00:25:19;9.50;;;4.55;;
34930;SDS011;21134;49.646;8.560;2022-08-19T00:27:46;10.70;;;3.72;;
34930;SDS011;21134;49.646;8.560;2022-08-19T00:30:14;10.80;;;3.70;;
34930;SDS011;21134;49.646;8.560;2022-08-19T00:32:41;17.08;;;4.35;;
34930;SDS011;21134;49.646;8.560;2022-08-19T00:35:07;9.15;;;4.40;;
34930;SDS011;21134;49.646;8.560;2022-08-19T00:37:35;6.72;;;3.67;;
34930;SDS011;21134;49.646;8.560;2022-08-19T00:40:03;6.75;;;4.03;;
34930;SDS011;21134;49.646;8.560;2022-08-19T00:42:31;10.48;;;4.50;;
34930;SDS011;21134;49.646;8.560;2022-08-19T00:44:58;11.90;;;4.75;;
34930;SDS011;21134;49.646;8.560;2022-08-19T00:47:26;10.20;;;4.60;;
34930;SDS011;21134;49.646;8.560;2022-08-19T00:49:54;9.13;;;4.22;;
34930;SDS011;21134;49.646;8.560;2022-08-19T00:52:23;10.32;;;4.80;;
34930;SDS011;21134;49.646;8.560;2022-08-19T00:54:53;11.30;;;5.05;;
34930;SDS011;21134;49.646;8.560;2022-08-19T00:57:22;14.75;;;5.18;;
34930;SDS011;21134;49.646;8.560;2022-08-19T00:59:53;10.18;;;4.93;;
34930;SDS011;21134;49.646;8.560;2022-08-19T01:02:21;7.63;;;4.22;;
34930;SDS011;21134;49.646;8.560;2022-08-19T01:04:49;12.27;;;4.90;;
34930;SDS011;21134;49.646;8.560;2022-08-19T01:07:16;10.85;;;4.93;;
34930;SDS011;21134;49.646;8.560;2022-08-19T01:09:43;9.23;;;4.65;;
34930;SDS011;21134;49.646;8.560;2022-08-19T01:12:10;12.13;;;4.28;;
34930;SDS011;21134;49.646;8.560;2022-08-19T01:14:37;9.35;;;5.07;;
34930;SDS011;21134;49.646;8.560;2022-08-19T01:17:06;12.10;;;4.75;;
34930;SDS011;21134;49.646;8.560;2022-08-19T01:19:35;10.57;;;4.35;;
34930;SDS011;21134;49.646;8.560;2022-08-19T01:22:06;8.10;;;4.28;;
34930;SDS011;21134;49.646;8.560;2022-08-19T01:24:40;10.88;;;4.50;;
34930;SDS011;21134;49.646;8.560;2022-08-19T01:27:07;9.10;;;4.78;;
34930;SDS011;21134;49.646;8.560;2022-08-19T01:29:34;11.02;;;5.15;;
34930;SDS011;21134;49.646;8.560;2022-08-19T01:32:03;10.25;;;4.53;;
34930;SDS011;21134;49.646;8.560;2022-08-19T01:34:31;5.85;;;3.78;;
34930;SDS011;21134;49.646;8.560;2022-08-19T01:36:59;8.00;;;3.50;;
34930;SDS011;21134;49.646;8.560;2022-08-19T01:39:27;11.63;;;5.45;;
34930;SDS011;21134;49.646;8.560;2022-08-19T01:41:55;9.15;;;4.40;;
34930;SDS011;21134;49.646;8.560;2022-08-19T01:44:22;7.38;;;4.35;;
34930;SDS011;21134;49.646;8.560;2022-08-19T01:46:50;10.57;;;4.78;;
34930;SDS011;21134;49.646;8.560;2022-08-19T01:49:18;8.13;;;4.43;;
34930;SDS011;21134;49.646;8.560;2022-08-19T01:51:47;10.55;;;4.78;;
34930;SDS011;21134;49.646;8.560;2022-08-19T01:54:14;7.85;;;4.63;;
34930;SDS011;21134;49.646;8.560;2022-08-19T01:56:42;11.00;;;4.68;;
34930;SDS011;21134;49.646;8.560;2022-08-19T01:59:11;11.63;;;4.93;;
34930;SDS011;21134;49.646;8.560;2022-08-19T02:01:42;10.10;;;4.97;;
34930;SDS011;21134;49.646;8.560;2022-08-19T02:04:09;11.85;;;5.10;;
34930;SDS011;21134;49.646;8.560;2022-08-19T02:06:36;10.13;;;4.72;;
34930;SDS011;21134;49.646;8.560;2022-08-19T02:09:03;10.35;;;5.00;;
34930;SDS011;21134;49.646;8.560;2022-08-19T02:11:32;9.32;;;4.75;;
34930;SDS011;21134;49.646;8.560;2022-08-19T02:14:01;14.43;;;4.72;;
34930;SDS011;21134;49.646;8.560;2022-08-19T02:16:30;19.77;;;5.30;;
34930;SDS011;21134;49.646;8.560;2022-08-19T02:18:57;14.63;;;5.00;;
34930;SDS011;21134;49.646;8.560;2022-08-19T02:21:25;14.27;;;5.72;;
34930;SDS011;21134;49.646;8.560;2022-08-19T02:23:53;9.02;;;4.50;;
34930;SDS011;21134;49.646;8.560;2022-08-19T02:26:20;8.48;;;4.38;;
34930;SDS011;21134;49.646;8.560;2022-08-19T02:28:47;9.63;;;4.18;;
34930;SDS011;21134;49.646;8.560;2022-08-19T02:31:15;10.40;;;4.93;;
34930;SDS011;21134;49.646;8.560;2022-08-19T02:33:45;8.50;;;4.75;;
34930;SDS011;21134;49.646;8.560;2022-08-19T02:36:12;15.38;;;5.25;;
34930;SDS011;21134;49.646;8.560;2022-08-19T02:38:40;11.88;;;5.10;;
34930;SDS011;21134;49.646;8.560;2022-08-19T02:41:11;8.70;;;4.82;;
34930;SDS011;21134;49.646;8.560;2022-08-19T02:43:39;12.38;;;5.28;;
34930;SDS011;21134;49.646;8.560;2022-08-19T02:46:11;9.57;;;4.82;;
34930;SDS011;21134;49.646;8.560;2022-08-19T02:48:39;8.05;;;5.03;;
34930;SDS011;21134;49.646;8.560;2022-08-19T02:51:07;10.27;;;5.45;;
34930;SDS011;21134;49.646;8.560;2022-08-19T02:53:33;11.55;;;5.35;;
34930;SDS011;21134;49.646;8.560;2022-08-19T02:56:00;9.15;;;5.30;;
34930;SDS011;21134;49.646;8.560;2022-08-19T02:58:26;11.65;;;5.32;;
34930;SDS011;21134;49.646;8.560;2022-08-19T03:00:54;7.57;;;4.75;;
34930;SDS011;21134;49.646;8.560;2022-08-19T03:03:22;10.52;;;4.88;;
34930;SDS011;21134;49.646;8.560;2022-08-19T03:05:48;7.70;;;4.30;;
34930;SDS011;21134;49.646;8.560;2022-08-19T03:08:16;8.50;;;4.28;;
34930;SDS011;21134;49.646;8.560;2022-08-19T03:10:44;9.52;;;4.70;;
34930;SDS011;21134;49.646;8.560;2022-08-19T03:13:12;9.32;;;5.43;;
34930;SDS011;21134;49.646;8.560;2022-08-19T03:15:41;12.73;;;5.60;;
34930;SDS011;21134;49.646;8.560;2022-08-19T03:18:08;7.63;;;4.35;;
34930;SDS011;21134;49.646;8.560;2022-08-19T03:20:39;9.23;;;4.32;;
34930;SDS011;21134;49.646;8.560;2022-08-19T03:23:07;12.68;;;5.53;;
34930;SDS011;21134;49.646;8.560;2022-08-19T03:25:37;12.00;;;5.38;;
34930;SDS011;21134;49.646;8.560;2022-08-19T03:28:05;11.57;;;4.60;;
34930;SDS011;21134;49.646;8.560;2022-08-19T03:30:32;9.77;;;4.45;;
34930;SDS011;21134;49.646;8.560;2022-08-19T03:32:59;12.18;;;4.60;;
34930;SDS011;21134;49.646;8.560;2022-08-19T03:35:25;10.65;;;5.30;;
34930;SDS011;21134;49.646;8.560;2022-08-19T03:37:52;12.15;;;5.30;;
34930;SDS011;21134;49.646;8.560;2022-08-19T03:40:18;9.90;;;4.90;;
34930;SDS011;21134;49.646;8.560;2022-08-19T03:42:46;9.32;;;4.13;;
34930;SDS011;21134;49.646;8.560;2022-08-19T03:45:14;9.55;;;5.75;;
34930;SDS011;21134;49.646;8.560;2022-08-19T03:47:40;6.93;;;4.57;;
34930;SDS011;21134;49.646;8.560;2022-08-19T03:50:07;10.18;;;5.10;;
34930;SDS011;21134;49.646;8.560;2022-08-19T03:52:34;8.93;;;4.45;;
34930;SDS011;21134;49.646;8.560;2022-08-19T03:55:02;12.05;;;5.38;;
34930;SDS011;21134;49.646;8.560;2022-08-19T03:57:29;18.10;;;5.88;;
34930;SDS011;21134;49.646;8.560;2022-08-19T03:59:57;8.88;;;4.63;;
34930;SDS011;21134;49.646;8.560;2022-08-19T04:02:23;7.88;;;4.32;;
34930;SDS011;21134;49.646;8.560;2022-08-19T04:04:50;10.05;;;4.95;;
34930;SDS011;21134;49.646;8.560;2022-08-19T04:07:20;9.65;;;4.70;;
34930;SDS011;21134;49.646;8.560;2022-08-19T04:09:46;9.18;;;5.07;;
34930;SDS011;21134;49.646;8.560;2022-08-19T04:12:14;8.52;;;4.63;;
34930;SDS011;21134;49.646;8.560;2022-08-19T04:14:41;10.35;;;4.68;;
34930;SDS011;21134;49.646;8.560;2022-08-19T04:17:08;11.15;;;4.72;;
34930;SDS011;21134;49.646;8.560;2022-08-19T04:19:37;12.60;;;5.47;;
34930;SDS011;21134;49.646;8.560;2022-08-19T04:22:04;13.35;;;5.30;;
34930;SDS011;21134;49.646;8.560;2022-08-19T04:24:31;9.45;;;4.85;;
34930;SDS011;21134;49.646;8.560;2022-08-19T04:26:59;11.50;;;4.78;;
34930;SDS011;21134;49.646;8.560;2022-08-19T04:29:26;12.38;;;5.78;;
34930;SDS011;21134;49.646;8.560;2022-08-19T04:31:54;11.15;;;6.25;;
34930;SDS011;21134;49.646;8.560;2022-08-19T04:34:23;8.90;;;4.50;;
34930;SDS011;21134;49.646;8.560;2022-08-19T04:36:52;14.88;;;5.45;;
34930;SDS011;21134;49.646;8.560;2022-08-19T04:39:22;10.95;;;5.80;;
34930;SDS011;21134;49.646;8.560;2022-08-19T04:42:11;8.75;;;4.07;;
34930;SDS011;21134;49.646;8.560;2022-08-19T04:45:05;8.73;;;4.95;;
34930;SDS011;21134;49.646;8.560;2022-08-19T04:47:34;15.75;;;5.50;;
34930;SDS011;21134;49.646;8.560;2022-08-19T04:50:03;13.85;;;5.15;;
34930;SDS011;21134;49.646;8.560;2022-08-19T04:52:30;9.93;;;5.07;;
34930;SDS011;21134;49.646;8.560;2022-08-19T04:54:57;10.55;;;4.07;;
34930;SDS011;21134;49.646;8.560;2022-08-19T04:57:24;15.82;;;5.30;;
34930;SDS011;21134;49.646;8.560;2022-08-19T04:59:53;8.77;;;4.68;;
34930;SDS011;21134;49.646;8.560;2022-08-19T05:02:20;11.82;;;6.18;;
34930;SDS011;21134;49.646;8.560;2022-08-19T05:04:48;11.55;;;5.47;;
34930;SDS011;21134;49.646;8.560;2022-08-19T05:07:16;11.60;;;4.93;;
34930;SDS011;21134;49.646;8.560;2022-08-19T05:09:42;10.38;;;5.57;;
34930;SDS011;21134;49.646;8.560;2022-08-19T05:12:09;8.05;;;4.45;;
34930;SDS011;21134;49.646;8.560;2022-08-19T05:14:35;9.55;;;5.40;;
34930;SDS011;21134;49.646;8.560;2022-08-19T05:17:02;8.05;;;5.22;;
34930;SDS011;21134;49.646;8.560;2022-08-19T05:19:29;8.45;;;4.65;;
34930;SDS011;21134;49.646;8.560;2022-08-19T05:22:13;8.15;;;4.38;;
34930;SDS011;21134;49.646;8.560;2022-08-19T05:25:00;9.48;;;5.00;;
34930;SDS011;21134;49.646;8.560;2022-08-19T05:27:30;11.43;;;5.68;;
34930;SDS011;21134;49.646;8.560;2022-08-19T05:29:57;9.13;;;4.95;;
34930;SDS011;21134;49.646;8.560;2022-08-19T05:32:23;8.15;;;3.83;;
34930;SDS011;21134;49.646;8.560;2022-08-19T05:34:50;8.10;;;4.50;;
34930;SDS011;21134;49.646;8.560;2022-08-19T05:37:17;8.27;;;4.43;;
34930;SDS011;21134;49.646;8.560;2022-08-19T05:39:43;12.40;;;4.78;;
34930;SDS011;21134;49.646;8.560;2022-08-19T05:42:11;10.15;;;4.97;;
34930;SDS011;21134;49.646;8.560;2022-08-19T05:44:39;14.00;;;4.90;;
34930;SDS011;21134;49.646;8.560;2022-08-19T05:47:08;9.50;;;5.07;;
34930;SDS011;21134;49.646;8.560;2022-08-19T05:49:35;10.50;;;5.15;;
34930;SDS011;21134;49.646;8.560;2022-08-19T05:52:02;9.88;;;4.13;;
34930;SDS011;21134;49.646;8.560;2022-08-19T05:54:30;10.05;;;5.40;;
34930;SDS011;21134;49.646;8.560;2022-08-19T05:56:57;10.93;;;5.00;;
34930;SDS011;21134;49.646;8.560;2022-08-19T05:59:25;8.23;;;4.53;;
34930;SDS011;21134;49.646;8.560;2022-08-19T06:01:52;15.00;;;5.82;;
34930;SDS011;21134;49.646;8.560;2022-08-19T06:04:20;12.95;;;6.00;;
34930;SDS011;21134;49.646;8.560;2022-08-19T06:06:48;12.63;;;5.13;;
34930;SDS011;21134;49.646;8.560;2022-08-19T06:09:16;14.40;;;6.13;;
34930;SDS011;21134;49.646;8.560;2022-08-19T06:11:44;9.30;;;4.72;;
34930;SDS011;21134;49.646;8.560;2022-08-19T06:14:13;12.65;;;5.07;;
34930;SDS011;21134;49.646;8.560;2022-08-19T06:16:44;11.65;;;5.70;;
34930;SDS011;21134;49.646;8.560;2022-08-19T06:19:12;8.68;;;4.57;;
34930;SDS011;21134;49.646;8.560;2022-08-19T06:21:41;10.18;;;5.20;;
34930;SDS011;21134;49.646;8.560;2022-08-19T06:24:09;8.73;;;5.18;;
34930;SDS011;21134;49.646;8.560;2022-08-19T06:26:39;10.15;;;5.18;;
34930;SDS011;21134;49.646;8.560;2022-08-19T06:29:08;6.47;;;3.80;;
34930;SDS011;21134;49.646;8.560;2022-08-19T06:31:36;12.35;;;5.30;;
34930;SDS011;21134;49.646;8.560;2022-08-19T06:34:04;13.23;;;5.40;;
34930;SDS011;21134;49.646;8.560;2022-08-19T06:36:32;8.13;;;4.90;;
34930;SDS011;21134;49.646;8.560;2022-08-19T06:39:00;7.82;;;4.85;;
34930;SDS011;21134;49.646;8.560;2022-08-19T06:41:29;7.28;;;3.83;;
34930;SDS011;21134;49.646;8.560;2022-08-19T06:43:56;7.57;;;4.50;;
34930;SDS011;21134;49.646;8.560;2022-08-19T06:46:22;9.98;;;4.50;;
34930;SDS011;21134;49.646;8.560;2022-08-19T06:48:49;8.48;;;4.15;;
34930;SDS011;21134;49.646;8.560;2022-08-19T06:51:20;9.32;;;4.47;;
34930;SDS011;21134;49.646;8.560;2022-08-19T06:53:49;7.60;;;4.22;;
34930;SDS011;21134;49.646;8.560;2022-08-19T06:56:22;11.70;;;4.78;;
34930;SDS011;21134;49.646;8.560;2022-08-19T06:58:55;9.80;;;4.28;;
34930;SDS011;21134;49.646;8.560;2022-08-19T07:01:22;7.50;;;4.07;;
34930;SDS011;21134;49.646;8.560;2022-08-19T07:03:51;6.97;;;4.32;;
34930;SDS011;21134;49.646;8.560;2022-08-19T07:06:17;9.32;;;3.92;;
34930;SDS011;21134;49.646;8.560;2022-08-19T07:08:46;6.75;;;3.90;;
34930;SDS011;21134;49.646;8.560;2022-08-19T07:11:15;6.70;;;3.63;;
34930;SDS011;21134;49.646;8.560;2022-08-19T07:13:44;7.22;;;4.40;;
34930;SDS011;21134;49.646;8.560;2022-08-19T07:16:14;6.88;;;4.13;;
34930;SDS011;21134;49.646;8.560;2022-08-19T07:18:42;8.25;;;4.55;;
34930;SDS011;21134;49.646;8.560;2022-08-19T07:21:10;7.03;;;3.83;;
34930;SDS011;21134;49.646;8.560;2022-08-19T07:23:39;10.43;;;4.85;;
34930;SDS011;21134;49.646;8.560;2022-08-19T07:26:06;8.70;;;4.63;;
34930;SDS011;21134;49.646;8.560;2022-08-19T07:28:34;8.43;;;4.75;;
34930;SDS011;21134;49.646;8.560;2022-08-19T07:31:04;6.68;;;4.22;;
34930;SDS011;21134;49.646;8.560;2022-08-19T07:33:31;7.03;;;4.07;;
34930;SDS011;21134;49.646;8.560;2022-08-19T07:36:02;8.70;;;4.25;;
34930;SDS011;21134;49.646;8.560;2022-08-19T07:38:29;6.78;;;4.00;;
34930;SDS011;21134;49.646;8.560;2022-08-19T07:40:57;8.68;;;4.97;;
34930;SDS011;21134;49.646;8.560;2022-08-19T07:43:24;8.48;;;4.43;;
34930;SDS011;21134;49.646;8.560;2022-08-19T07:45:51;7.65;;;3.28;;
34930;SDS011;21134;49.646;8.560;2022-08-19T07:48:21;7.00;;;3.60;;
34930;SDS011;21134;49.646;8.560;2022-08-19T07:50:50;8.75;;;4.45;;
34930;SDS011;21134;49.646;8.560;2022-08-19T07:53:18;8.00;;;4.13;;
34930;SDS011;21134;49.646;8.560;2022-08-19T07:55:45;7.13;;;3.88;;
34930;SDS011;21134;49.646;8.560;2022-08-19T07:58:14;5.72;;;3.72;;
34930;SDS011;21134;49.646;8.560;2022-08-19T08:00:44;6.05;;;3.33;;
34930;SDS011;21134;49.646;8.560;2022-08-19T08:03:12;8.85;;;3.83;;
34930;SDS011;21134;49.646;8.560;2022-08-19T08:05:40;7.13;;;3.08;;
34930;SDS011;21134;49.646;8.560;2022-08-19T08:08:25;6.97;;;2.88;;
34930;SDS011;21134;49.646;8.560;2022-08-19T08:11:10;5.65;;;3.53;;
34930;SDS011;21134;49.646;8.560;2022-08-19T08:13:39;5.93;;;3.10;;
34930;SDS011;21134;49.646;8.560;2022-08-19T08:16:06;5.45;;;2.80;;
34930;SDS011;21134;49.646;8.560;2022-08-19T08:18:33;7.85;;;3.28;;
34930;SDS011;21134;49.646;8.560;2022-08-19T08:21:06;3.17;;;2.42;;
34930;SDS011;21134;49.646;8.560;2022-08-19T08:23:33;4.78;;;2.58;;
34930;SDS011;21134;49.646;8.560;2022-08-19T08:26:00;7.25;;;2.40;;
34930;SDS011;21134;49.646;8.560;2022-08-19T08:28:29;5.15;;;3.08;;
34930;SDS011;21134;49.646;8.560;2022-08-19T08:30:57;4.00;;;2.30;;
34930;SDS011;21134;49.646;8.560;2022-08-19T08:33:25;3.80;;;2.40;;
34930;SDS011;21134;49.646;8.560;2022-08-19T08:35:55;2.58;;;2.38;;
34930;SDS011;21134;49.646;8.560;2022-08-19T08:38:21;11.82;;;2.72;;
34930;SDS011;21134;49.646;8.560;2022-08-19T08:40:49;5.63;;;2.40;;
34930;SDS011;21134;49.646;8.560;2022-08-19T08:43:21;3.50;;;2.40;;
34930;SDS011;21134;49.646;8.560;2022-08-19T08:45:52;3.72;;;2.65;;
34930;SDS011;21134;49.646;8.560;2022-08-19T08:48:24;3.40;;;2.25;;
34930;SDS011;21134;49.646;8.560;2022-08-19T08:51:00;3.97;;;2.13;;
34930;SDS011;21134;49.646;8.560;2022-08-19T08:53:31;4.13;;;2.40;;
34930;SDS011;21134;49.646;8.560;2022-08-19T08:56:00;5.70;;;2.80;;
34930;SDS011;21134;49.646;8.560;2022-08-19T08:58:29;6.03;;;3.20;;
34930;SDS011;21134;49.646;8.560;2022-08-19T09:01:08;4.80;;;2.30;;
34930;SDS011;21134;49.646;8.560;2022-08-19T09:03:37;3.08;;;2.13;;
34930;SDS011;21134;49.646;8.560;2022-08-19T09:06:06;3.95;;;2.42;;
34930;SDS011;21134;49.646;8.560;2022-08-19T09:08:39;5.10;;;3.13;;
34930;SDS011;21134;49.646;8.560;2022-08-19T09:11:12;2.72;;;2.22;;
34930;SDS011;21134;49.646;8.560;2022-08-19T09:13:44;5.53;;;3.25;;
34930;SDS011;21134;49.646;8.560;2022-08-19T09:16:26;4.38;;;2.17;;
34930;SDS011;21134;49.646;8.560;2022-08-19T09:18:56;6.35;;;2.95;;
34930;SDS011;21134;49.646;8.560;2022-08-19T09:21:26;2.83;;;2.33;;
34930;SDS011;21134;49.646;8.560;2022-08-19T09:23:53;3.03;;;2.50;;
34930;SDS011;21134;49.646;8.560;2022-08-19T09:26:20;6.07;;;2.45;;
34930;SDS011;21134;49.646;8.560;2022-08-19T09:28:49;4.53;;;2.88;;
34930;SDS011;21134;49.646;8.560;2022-08-19T09:31:20;4.50;;;2.42;;
34930;SDS011;21134;49.646;8.560;2022-08-19T09:33:48;4.00;;;2.40;;
34930;SDS011;21134;49.646;8.560;2022-08-19T09:36:17;4.68;;;3.00;;
34930;SDS011;21134;49.646;8.560;2022-08-19T09:38:47;6.68;;;2.83;;
34930;SDS011;21134;49.646;8.560;2022-08-19T09:41:17;1.92;;;1.80;;
34930;SDS011;21134;49.646;8.560;2022-08-19T09:43:46;4.97;;;2.17;;
34930;SDS011;21134;49.646;8.560;2022-08-19T09:46:17;2.70;;;2.17;;
34930;SDS011;21134;49.646;8.560;2022-08-19T09:48:46;3.10;;;1.95;;
34930;SDS011;21134;49.646;8.560;2022-08-19T09:51:14;3.72;;;2.55;;
34930;SDS011;21134;49.646;8.560;2022-08-19T09:53:44;2.72;;;2.30;;
34930;SDS011;21134;49.646;8.560;2022-08-19T09:56:12;5.85;;;2.70;;
34930;SDS011;21134;49.646;8.560;2022-08-19T09:58:39;2.85;;;2.33;;
34930;SDS011;21134;49.646;8.560;2022-08-19T10:01:08;4.78;;;2.47;;
34930;SDS011;21134;49.646;8.560;2022-08-19T10:03:40;6.88;;;2.40;;
34930;SDS011;21134;49.646;8.560;2022-08-19T10:06:07;3.58;;;2.58;;
34930;SDS011;21134;49.646;8.560;2022-08-19T10:08:36;6.18;;;2.90;;
34930;SDS011;21134;49.646;8.560;2022-08-19T10:11:05;4.28;;;2.85;;
34930;SDS011;21134;49.646;8.560;2022-08-19T10:13:32;3.72;;;3.08;;
34930;SDS011;21134;49.646;8.560;2022-08-19T10:16:03;7.57;;;3.20;;
34930;SDS011;21134;49.646;8.560;2022-08-19T10:18:32;4.05;;;2.75;;
34930;SDS011;21134;49.646;8.560;2022-08-19T10:21:04;3.60;;;2.85;;
34930;SDS011;21134;49.646;8.560;2022-08-19T10:23:37;6.78;;;3.35;;
34930;SDS011;21134;49.646;8.560;2022-08-19T10:26:05;4.80;;;3.42;;
34930;SDS011;21134;49.646;8.560;2022-08-19T10:28:32;4.22;;;2.83;;
34930;SDS011;21134;49.646;8.560;2022-08-19T10:31:03;5.82;;;4.28;;
34930;SDS011;21134;49.646;8.560;2022-08-19T10:33:31;5.57;;;3.67;;
34930;SDS011;21134;49.646;8.560;2022-08-19T10:35:59;4.90;;;3.38;;
34930;SDS011;21134;49.646;8.560;2022-08-19T10:38:26;5.22;;;2.95;;
34930;SDS011;21134;49.646;8.560;2022-08-19T10:40:55;4.65;;;3.40;;
34930;SDS011;21134;49.646;8.560;2022-08-19T10:43:22;4.80;;;3.40;;
34930;SDS011;21134;49.646;8.560;2022-08-19T10:45:51;4.05;;;3.17;;
34930;SDS011;21134;49.646;8.560;2022-08-19T10:48:19;4.85;;;3.25;;
34930;SDS011;21134;49.646;8.560;2022-08-19T10:50:46;6.47;;;3.50;;
34930;SDS011;21134;49.646;8.560;2022-08-19T10:53:30;5.00;;;3.97;;
34930;SDS011;21134;49.646;8.560;2022-08-19T10:55:58;5.60;;;4.13;;
34930;SDS011;21134;49.646;8.560;2022-08-19T10:58:42;6.10;;;3.33;;
34930;SDS011;21134;49.646;8.560;2022-08-19T11:01:09;7.03;;;4.20;;
34930;SDS011;21134;49.646;8.560;2022-08-19T11:03:37;7.22;;;4.38;;
34930;SDS011;21134;49.646;8.560;2022-08-19T11:06:05;6.97;;;4.43;;
34930;SDS011;21134;49.646;8.560;2022-08-19T11:08:35;5.32;;;3.40;;
34930;SDS011;21134;49.646;8.560;2022-08-19T11:11:04;5.75;;;3.90;;
34930;SDS011;21134;49.646;8.560;2022-08-19T11:13:35;4.60;;;3.63;;
34930;SDS011;21134;49.646;8.560;2022-08-19T11:16:05;5.22;;;3.22;;
34930;SDS011;21134;49.646;8.560;2022-08-19T11:18:35;7.55;;;3.50;;
34930;SDS011;21134;49.646;8.560;2022-08-19T11:21:07;7.18;;;3.30;;
34930;SDS011;21134;49.646;8.560;2022-08-19T11:23:35;5.85;;;3.35;;
34930;SDS011;21134;49.646;8.560;2022-08-19T11:26:02;4.72;;;3.60;;
34930;SDS011;21134;49.646;8.560;2022-08-19T11:28:30;3.42;;;2.85;;
34930;SDS011;21134;49.646;8.560;2022-08-19T11:30:56;4.85;;;3.20;;
34930;SDS011;21134;49.646;8.560;2022-08-19T11:33:23;5.20;;;3.72;;
34930;SDS011;21134;49.646;8.560;2022-08-19T11:35:51;7.43;;;3.70;;
34930;SDS011;21134;49.646;8.560;2022-08-19T11:38:18;6.30;;;4.00;;
34930;SDS011;21134;49.646;8.560;2022-08-19T11:40:44;5.07;;;3.60;;
34930;SDS011;21134;49.646;8.560;2022-08-19T11:43:12;5.90;;;4.07;;
34930;SDS011;21134;49.646;8.560;2022-08-19T11:45:39;3.65;;;2.95;;
34930;SDS011;21134;49.646;8.560;2022-08-19T11:48:06;30.40;;;4.28;;
34930;SDS011;21134;49.646;8.560;2022-08-19T11:50:33;5.95;;;3.90;;
34930;SDS011;21134;49.646;8.560;2022-08-19T11:53:00;11.82;;;4.30;;
34930;SDS011;21134;49.646;8.560;2022-08-19T11:55:26;9.25;;;3.78;;
34930;SDS011;21134;49.646;8.560;2022-08-19T11:57:53;5.70;;;3.80;;
34930;SDS011;21134;49.646;8.560;2022-08-19T12:00:22;3.72;;;2.70;;
34930;SDS011;21134;49.646;8.560;2022-08-19T12:02:49;5.88;;;2.83;;
34930;SDS011;21134;49.646;8.560;2022-08-19T12:05:16;4.55;;;3.42;;
34930;SDS011;21134;49.646;8.560;2022-08-19T12:07:43;5.20;;;3.20;;
34930;SDS011;21134;49.646;8.560;2022-08-19T12:10:10;5.05;;;3.22;;
34930;SDS011;21134;49.646;8.560;2022-08-19T12:12:37;4.45;;;3.60;;
34930;SDS011;21134;49.646;8.560;2022-08-19T12:15:07;3.70;;;3.20;;
34930;SDS011;21134;49.646;8.560;2022-08-19T12:17:37;4.80;;;3.22;;
34930;SDS011;21134;49.646;8.560;2022-08-19T12:20:05;4.90;;;3.03;;
34930;SDS011;21134;49.646;8.560;2022-08-19T12:22:33;4.22;;;3.00;;
34930;SDS011;21134;49.646;8.560;2022-08-19T12:25:00;4.43;;;3.15;;
34930;SDS011;21134;49.646;8.560;2022-08-19T12:27:27;4.15;;;3.20;;
34930;SDS011;21134;49.646;8.560;2022-08-19T12:29:53;3.85;;;3.13;;
34930;SDS011;21134;49.646;8.560;2022-08-19T12:32:20;3.63;;;3.08;;
34930;SDS011;21134;49.646;8.560;2022-08-19T12:34:48;4.50;;;3.40;;
34930;SDS011;21134;49.646;8.560;2022-08-19T12:37:14;4.38;;;3.10;;
34930;SDS011;21134;49.646;8.560;2022-08-19T12:39:42;3.30;;;2.90;;
34930;SDS011;21134;49.646;8.560;2022-08-19T12:42:08;3.20;;;2.60;;
34930;SDS011;21134;49.646;8.560;2022-08-19T12:44:36;3.70;;;2.90;;
34930;SDS011;21134;49.646;8.560;2022-08-19T12:47:04;5.00;;;2.70;;
34930;SDS011;21134;49.646;8.560;2022-08-19T12:49:32;3.33;;;3.03;;
34930;SDS011;21134;49.646;8.560;2022-08-19T12:52:03;6.75;;;3.30;;
34930;SDS011;21134;49.646;8.560;2022-08-19T12:54:30;3.85;;;3.25;;
34930;SDS011;21134;49.646;8.560;2022-08-19T12:56:57;2.75;;;2.30;;
34930;SDS011;21134;49.646;8.560;2022-08-19T12:59:24;3.38;;;2.90;;
34930;SDS011;21134;49.646;8.560;2022-08-19T13:01:51;3.83;;;2.80;;
34930;SDS011;21134;49.646;8.560;2022-08-19T13:04:17;3.28;;;2.85;;
34930;SDS011;21134;49.646;8.560;2022-08-19T13:06:44;4.57;;;3.13;;
34930;SDS011;21134;49.646;8.560;2022-08-19T13:09:12;3.63;;;2.42;;
34930;SDS011;21134;49.646;8.560;2022-08-19T13:11:39;3.00;;;2.40;;
34930;SDS011;21134;49.646;8.560;2022-08-19T13:14:05;4.80;;;3.15;;
34930;SDS011;21134;49.646;8.560;2022-08-19T13:16:32;2.83;;;2.40;;
34930;SDS011;21134;49.646;8.560;2022-08-19T13:18:59;5.80;;;3.00;;
34930;SDS011;21134;49.646;8.560;2022-08-19T13:21:27;4.22;;;2.85;;
34930;SDS011;21134;49.646;8.560;2022-08-19T13:23:55;4.68;;;2.42;;
34930;SDS011;21134;49.646;8.560;2022-08-19T13:26:22;3.95;;;2.63;;
34930;SDS011;21134;49.646;8.560;2022-08-19T13:28:49;3.80;;;2.90;;
34930;SDS011;21134;49.646;8.560;2022-08-19T13:31:34;3.60;;;2.30;;
34930;SDS011;21134;49.646;8.560;2022-08-19T13:34:25;2.28;;;2.08;;
34930;SDS011;21134;49.646;8.560;2022-08-19T13:36:53;3.75;;;2.67;;
34930;SDS011;21134;49.646;8.560;2022-08-19T13:39:20;4.78;;;2.63;;
34930;SDS011;21134;49.646;8.560;2022-08-19T13:41:49;7.43;;;2.92;;
34930;SDS011;21134;49.646;8.560;2022-08-19T13:44:17;3.65;;;2.92;;
34930;SDS011;21134;49.646;8.560;2022-08-19T13:46:44;6.32;;;2.15;;
34930;SDS011;21134;49.646;8.560;2022-08-19T13:49:11;2.65;;;2.30;;
34930;SDS011;21134;49.646;8.560;2022-08-19T13:51:40;3.63;;;2.38;;
34930;SDS011;21134;49.646;8.560;2022-08-19T13:54:07;2.70;;;2.50;;
34930;SDS011;21134;49.646;8.560;2022-08-19T13:56:35;3.00;;;2.47;;
34930;SDS011;21134;49.646;8.560;2022-08-19T13:59:06;3.42;;;2.15;;
34930;SDS011;21134;49.646;8.560;2022-08-19T14:01:33;4.25;;;2.90;;
34930;SDS011;21134;49.646;8.560;2022-08-19T14:04:00;3.83;;;2.40;;
34930;SDS011;21134;49.646;8.560;2022-08-19T14:06:26;3.05;;;2.63;;
34930;SDS011;21134;49.646;8.560;2022-08-19T14:08:53;3.72;;;2.35;;
34930;SDS011;21134;49.646;8.560;2022-08-19T14:11:19;2.85;;;2.33;;
34930;SDS011;21134;49.646;8.560;2022-08-19T14:13:47;4.93;;;2.70;;
34930;SDS011;21134;49.646;8.560;2022-08-19T14:16:16;4.78;;;2.85;;
34930;SDS011;21134;49.646;8.560;2022-08-19T14:18:42;3.63;;;3.05;;
34930;SDS011;21134;49.646;8.560;2022-08-19T14:21:13;4.55;;;2.42;;
34930;SDS011;21134;49.646;8.560;2022-08-19T14:23:42;3.33;;;2.88;;
34930;SDS011;21134;49.646;8.560;2022-08-19T14:26:10;2.53;;;2.05;;
34930;SDS011;21134;49.646;8.560;2022-08-19T14:28:40;5.70;;;2.65;;
34930;SDS011;21134;49.646;8.560;2022-08-19T14:31:07;4.43;;;3.10;;
34930;SDS011;21134;49.646;8.560;2022-08-19T14:33:35;2.83;;;2.05;;
34930;SDS011;21134;49.646;8.560;2022-08-19T14:36:02;4.18;;;2.70;;
34930;SDS011;21134;49.646;8.560;2022-08-19T14:38:30;3.35;;;2.88;;
34930;SDS011;21134;49.646;8.560;2022-08-19T14:41:05;2.85;;;2.53;;
34930;SDS011;21134;49.646;8.560;2022-08-19T14:43:33;2.58;;;2.13;;
34930;SDS011;21134;49.646;8.560;2022-08-19T14:46:00;2.70;;;2.50;;
34930;SDS011;21134;49.646;8.560;2022-08-19T14:48:26;2.97;;;2.42;;
34930;SDS011;21134;49.646;8.560;2022-08-19T14:50:54;5.07;;;2.25;;